Time;durP1;ratioP1;P1;durP2;ratioP2;P2;SDS_P1;SDS_P2;PMS_P1;PMS_P2;Temp;Humidity;BMP_temperature;BMP_pressure;BME280_temperature;BME280_humidity;BME280_pressure;Samples;Min_cycle;Max_cycle;Signal;HPM_P1;HPM_P2
2022/10/28 00:01:55;;;;;;;8.77;4.10;;;13.40;99.90;;;;;;4998313;28;20311;-89
2022/10/28 00:04:24;;;;;;;6.50;3.90;;;13.40;99.90;;;;;;4971251;28;20218;-89
2022/10/28 00:06:52;;;;;;;6.50;4.03;;;13.40;99.90;;;;;;4987402;28;20335;-87
2022/10/28 00:09:19;;;;;;;8.33;3.60;;;13.40;99.90;;;;;;4998317;28;20960;-89
2022/10/28 00:11:46;;;;;;;6.23;3.70;;;13.40;99.90;;;;;;4997740;28;20236;-91
2022/10/28 00:14:16;;;;;;;5.60;3.60;;;13.30;99.90;;;;;;4992879;28;20230;-91
2022/10/28 00:16:43;;;;;;;6.00;3.50;;;13.30;99.90;;;;;;5002575;28;20236;-91
2022/10/28 00:19:12;;;;;;;6.87;3.70;;;13.30;99.90;;;;;;4999697;28;20238;-92
2022/10/28 00:21:43;;;;;;;7.17;3.97;;;13.20;99.90;;;;;;4996896;28;20316;-92
2022/10/28 00:24:13;;;;;;;7.97;3.70;;;13.20;99.90;;;;;;5001992;28;20228;-93
2022/10/28 00:26:42;;;;;;;7.00;3.67;;;13.20;99.90;;;;;;5003469;28;20225;-94
2022/10/28 00:29:11;;;;;;;4.77;3.77;;;13.10;99.90;;;;;;5000636;28;20608;-92
2022/10/28 00:31:38;;;;;;;8.50;3.63;;;13.10;99.90;;;;;;4997758;28;20294;-92
2022/10/28 00:34:08;;;;;;;5.80;3.80;;;13.10;99.90;;;;;;4999945;28;20719;-92
2022/10/28 00:36:42;;;;;;;6.47;4.30;;;13.10;99.90;;;;;;5001814;28;20228;-92
2022/10/28 00:39:13;;;;;;;6.77;4.13;;;13.00;99.90;;;;;;4996241;28;20248;-90
2022/10/28 00:41:42;;;;;;;8.10;4.00;;;13.00;99.90;;;;;;4996323;28;20255;-90
2022/10/28 00:44:43;;;;;;;7.27;3.90;;;13.00;99.90;;;;;;4990688;28;20730;-90
2022/10/28 00:47:17;;;;;;;6.27;4.20;;;13.00;99.90;;;;;;4998045;28;20221;-90
2022/10/28 00:49:49;;;;;;;7.63;3.80;;;13.00;99.90;;;;;;4999478;28;21582;-89
2022/10/28 00:52:19;;;;;;;8.47;4.10;;;12.90;99.90;;;;;;5001150;28;20225;-90
2022/10/28 00:54:48;;;;;;;6.47;3.57;;;12.90;99.90;;;;;;4999912;28;20320;-90
2022/10/28 00:57:21;;;;;;;9.43;4.00;;;12.90;99.90;;;;;;4998517;28;20239;-88
2022/10/28 00:59:51;;;;;;;6.00;3.80;;;12.80;99.90;;;;;;5001753;28;20248;-92
2022/10/28 01:02:19;;;;;;;7.93;4.10;;;12.90;99.90;;;;;;4993373;28;20225;-93
2022/10/28 01:04:47;;;;;;;10.57;4.00;;;12.80;99.90;;;;;;4996951;28;20222;-93
2022/10/28 01:07:15;;;;;;;8.37;3.70;;;12.90;99.90;;;;;;5006121;28;20242;-94
2022/10/28 01:09:43;;;;;;;6.50;3.83;;;12.80;99.90;;;;;;5002379;28;20322;-91
2022/10/28 01:12:22;;;;;;;7.43;4.10;;;12.80;99.90;;;;;;5002338;28;20233;-92
2022/10/28 01:15:00;;;;;;;9.03;4.43;;;12.80;99.90;;;;;;5002339;28;20226;-91
2022/10/28 01:17:49;;;;;;;7.53;4.20;;;12.80;99.90;;;;;;4999305;28;20426;-89
2022/10/28 01:20:46;;;;;;;7.67;3.87;;;12.70;99.90;;;;;;4994513;28;20409;-89
2022/10/28 01:23:21;;;;;;;5.57;4.17;;;12.70;99.90;;;;;;4996549;28;20233;-90
2022/10/28 01:26:07;;;;;;;10.10;4.20;;;12.70;99.90;;;;;;4999640;28;20402;-89
2022/10/28 01:29:17;;;;;;;9.07;4.37;;;12.70;99.90;;;;;;5011467;28;20303;-89
2022/10/28 01:31:49;;;;;;;7.77;4.00;;;12.70;99.90;;;;;;4996261;28;20761;-89
2022/10/28 01:34:30;;;;;;;6.17;3.63;;;12.80;99.90;;;;;;4997036;28;20237;-89
2022/10/28 01:37:02;;;;;;;7.67;3.60;;;12.80;99.90;;;;;;4998472;28;20600;-89
2022/10/28 01:39:34;;;;;;;8.23;6.77;;;12.80;99.90;;;;;;4997862;28;20231;-93
2022/10/28 01:42:13;;;;;;;7.00;4.47;;;12.80;99.90;;;;;;4994699;28;20246;-91
2022/10/28 01:44:48;;;;;;;6.83;4.17;;;12.90;99.90;;;;;;5008478;28;20298;-94
2022/10/28 01:47:22;;;;;;;11.43;3.83;;;12.80;99.90;;;;;;4998883;28;20219;-89
2022/10/28 01:49:58;;;;;;;8.10;3.80;;;13.00;99.90;;;;;;5007861;28;20227;-88
2022/10/28 01:52:27;;;;;;;6.53;4.00;;;12.90;99.90;;;;;;4998618;28;20232;-87
2022/10/28 01:55:00;;;;;;;5.77;3.73;;;13.00;99.90;;;;;;4998842;28;20224;-92
2022/10/28 01:57:29;;;;;;;7.90;3.67;;;12.90;99.90;;;;;;4997514;28;20238;-92
2022/10/28 01:59:57;;;;;;;7.40;3.60;;;13.00;99.90;;;;;;4999722;28;20229;-92
2022/10/28 02:02:26;;;;;;;7.90;4.10;;;13.00;99.90;;;;;;4998941;28;20246;-92
2022/10/28 02:05:06;;;;;;;8.60;4.30;;;12.90;99.90;;;;;;5000107;28;20241;-89
2022/10/28 02:07:33;;;;;;;7.73;4.20;;;12.90;99.90;;;;;;4998877;28;20768;-90
2022/10/28 02:10:12;;;;;;;10.47;4.47;;;13.00;99.90;;;;;;4996281;28;20229;-87
2022/10/28 02:12:39;;;;;;;8.10;4.30;;;12.90;99.90;;;;;;5002305;28;20232;-89
2022/10/28 02:15:19;;;;;;;7.83;3.90;;;13.00;99.90;;;;;;4997417;28;20772;-88
2022/10/28 02:18:18;;;;;;;5.43;3.70;;;12.90;99.90;;;;;;4996052;28;20232;-89
2022/10/28 02:20:53;;;;;;;7.20;3.70;;;12.90;99.90;;;;;;4992845;28;20235;-92
2022/10/28 02:23:33;;;;;;;8.90;3.93;;;12.90;99.90;;;;;;4974007;28;20305;-93
2022/10/28 02:26:07;;;;;;;5.57;3.43;;;12.90;99.90;;;;;;4988707;28;20232;-92
2022/10/28 02:28:41;;;;;;;5.93;3.90;;;13.00;99.90;;;;;;5007048;28;20229;-91
2022/10/28 02:31:16;;;;;;;7.57;3.80;;;13.00;99.90;;;;;;5000662;28;20248;-92
2022/10/28 02:33:49;;;;;;;6.93;3.90;;;13.00;99.90;;;;;;4996362;28;20241;-90
2022/10/28 02:36:18;;;;;;;9.37;4.57;;;12.90;99.90;;;;;;4998995;28;20740;-89
2022/10/28 02:38:49;;;;;;;7.90;4.50;;;13.00;99.90;;;;;;5000925;28;20228;-92
2022/10/28 02:41:20;;;;;;;7.37;4.10;;;13.10;99.90;;;;;;5004616;28;20232;-94
2022/10/28 02:43:51;;;;;;;5.57;3.80;;;13.10;99.90;;;;;;4998823;28;20222;-92
2022/10/28 02:46:20;;;;;;;5.10;3.60;;;13.10;99.90;;;;;;4998179;28;20256;-91
2022/10/28 02:48:51;;;;;;;5.07;3.50;;;13.10;99.90;;;;;;4999453;28;20743;-94
2022/10/28 02:51:26;;;;;;;6.57;3.93;;;13.10;99.90;;;;;;5001296;28;20222;-92
2022/10/28 02:54:00;;;;;;;8.37;4.00;;;13.00;99.90;;;;;;5003393;28;20238;-92
2022/10/28 02:56:30;;;;;;;7.03;4.37;;;13.10;99.90;;;;;;4999215;28;20264;-93
2022/10/28 02:58:59;;;;;;;7.00;3.70;;;13.00;99.90;;;;;;4998265;28;20307;-92
2022/10/28 03:01:26;;;;;;;9.10;4.00;;;12.90;99.90;;;;;;5004500;28;20215;-91
2022/10/28 03:03:55;;;;;;;6.33;4.00;;;13.00;99.90;;;;;;5002873;28;20257;-91
2022/10/28 03:06:24;;;;;;;9.33;4.30;;;12.90;99.90;;;;;;5002478;28;20263;-91
2022/10/28 03:08:52;;;;;;;7.60;4.37;;;12.90;99.90;;;;;;5009956;28;20228;-92
2022/10/28 03:11:20;;;;;;;5.53;3.87;;;12.80;99.90;;;;;;4997776;28;20216;-91
2022/10/28 03:13:46;;;;;;;8.20;4.23;;;12.80;99.90;;;;;;5001801;28;20233;-88
2022/10/28 03:16:13;;;;;;;12.53;4.53;;;12.70;99.90;;;;;;5001312;28;20755;-90
2022/10/28 03:18:40;;;;;;;9.60;4.87;;;12.70;99.90;;;;;;4999305;28;20237;-92
2022/10/28 03:21:08;;;;;;;7.50;4.97;;;12.70;99.90;;;;;;5003954;28;20223;-92
2022/10/28 03:23:35;;;;;;;8.13;4.37;;;12.70;99.90;;;;;;5003558;28;20221;-93
2022/10/28 03:26:05;;;;;;;7.00;4.30;;;12.60;99.90;;;;;;5005060;28;20216;-92
2022/10/28 03:28:31;;;;;;;7.87;4.40;;;12.60;99.90;;;;;;4998518;28;20231;-92
2022/10/28 03:30:58;;;;;;;7.73;4.80;;;12.50;99.90;;;;;;5001652;28;20241;-91
2022/10/28 03:33:25;;;;;;;8.77;4.80;;;12.50;99.90;;;;;;4996495;28;20234;-90
2022/10/28 03:35:52;;;;;;;7.63;5.00;;;12.50;99.90;;;;;;5001310;28;20325;-90
2022/10/28 03:38:20;;;;;;;7.67;4.97;;;12.50;99.90;;;;;;4997877;28;20362;-88
2022/10/28 03:40:48;;;;;;;9.10;4.93;;;12.40;99.90;;;;;;5006640;23;20717;-89
2022/10/28 03:43:15;;;;;;;10.50;5.03;;;12.40;99.90;;;;;;4998429;28;20219;-88
2022/10/28 03:45:41;;;;;;;11.00;5.43;;;12.40;99.90;;;;;;5006329;28;20262;-93
2022/10/28 03:48:08;;;;;;;9.13;5.00;;;12.40;99.90;;;;;;5004658;28;20742;-93
2022/10/28 03:50:35;;;;;;;8.33;4.73;;;12.40;99.90;;;;;;5003591;28;20220;-92
2022/10/28 03:53:05;;;;;;;8.00;4.83;;;12.50;99.90;;;;;;4997459;28;20243;-92
2022/10/28 03:55:44;;;;;;;9.57;4.80;;;12.50;99.90;;;;;;5000340;28;20252;-94
2022/10/28 03:58:18;;;;;;;12.20;4.97;;;12.50;99.90;;;;;;5004729;28;20833;-93
2022/10/28 04:00:47;;;;;;;8.33;4.37;;;12.50;99.90;;;;;;5001689;28;20232;-94
2022/10/28 04:03:14;;;;;;;8.73;4.53;;;12.50;99.90;;;;;;4994240;28;20263;-92
2022/10/28 04:05:41;;;;;;;12.83;5.33;;;12.60;99.90;;;;;;5004822;28;20232;-92
2022/10/28 04:08:08;;;;;;;10.40;4.90;;;12.60;99.90;;;;;;5007300;28;20748;-93
2022/10/28 04:10:38;;;;;;;9.90;4.33;;;12.60;99.90;;;;;;4997028;28;20231;-93
2022/10/28 04:13:09;;;;;;;6.37;4.43;;;12.60;99.90;;;;;;4996628;28;20227;-92
2022/10/28 04:15:40;;;;;;;10.20;5.30;;;12.70;99.90;;;;;;4993530;28;20612;-93
2022/10/28 04:18:12;;;;;;;8.20;4.67;;;12.70;99.90;;;;;;4989282;28;20222;-92
2022/10/28 04:20:41;;;;;;;11.63;5.13;;;12.80;99.90;;;;;;5001605;28;20263;-92
2022/10/28 04:23:09;;;;;;;8.30;4.30;;;12.80;99.90;;;;;;4998013;28;20220;-92
2022/10/28 04:25:39;;;;;;;8.03;4.70;;;12.80;99.90;;;;;;4991292;28;20224;-91
2022/10/28 04:28:06;;;;;;;7.80;5.33;;;12.80;99.90;;;;;;5001270;28;20230;-92
2022/10/28 04:30:33;;;;;;;8.63;4.70;;;12.80;99.90;;;;;;5001556;28;20238;-92
2022/10/28 04:33:09;;;;;;;7.97;5.20;;;12.80;99.90;;;;;;5002255;28;20223;-96
2022/10/28 04:35:38;;;;;;;6.60;4.37;;;12.80;99.90;;;;;;5000826;28;20227;-91
2022/10/28 04:38:07;;;;;;;7.97;5.07;;;12.80;99.90;;;;;;4996279;28;20307;-92
2022/10/28 04:40:34;;;;;;;7.43;4.53;;;12.80;99.90;;;;;;4998404;28;20224;-91
2022/10/28 04:43:02;;;;;;;10.47;5.47;;;12.80;99.90;;;;;;4994059;28;20317;-92
2022/10/28 04:45:29;;;;;;;11.00;4.70;;;12.80;99.90;;;;;;4997204;28;20228;-92
2022/10/28 04:47:57;;;;;;;7.93;4.37;;;12.70;99.90;;;;;;4995114;28;20302;-93
2022/10/28 04:50:24;;;;;;;7.67;4.93;;;12.70;99.90;;;;;;5002912;28;20306;-91
2022/10/28 04:52:50;;;;;;;8.37;4.60;;;12.80;99.90;;;;;;4994153;28;20677;-91
2022/10/28 04:55:17;;;;;;;7.13;4.80;;;12.70;99.90;;;;;;4993580;28;20791;-91
2022/10/28 04:57:44;;;;;;;10.13;4.50;;;12.70;99.90;;;;;;4997365;28;20667;-92
2022/10/28 05:00:13;;;;;;;8.63;6.03;;;12.60;99.90;;;;;;5000433;28;20232;-91
2022/10/28 05:02:40;;;;;;;9.43;5.27;;;12.60;99.90;;;;;;4995080;28;20243;-92
2022/10/28 05:05:08;;;;;;;9.57;5.10;;;12.60;99.90;;;;;;4997847;28;20333;-92
2022/10/28 05:07:34;;;;;;;8.87;5.13;;;12.60;99.90;;;;;;4995771;28;20287;-92
2022/10/28 05:10:01;;;;;;;7.73;5.17;;;12.60;99.90;;;;;;5003772;28;20445;-89
2022/10/28 05:12:32;;;;;;;7.53;4.70;;;12.60;99.90;;;;;;4996542;28;21037;-93
2022/10/28 05:15:04;;;;;;;8.00;4.60;;;12.60;99.90;;;;;;5000316;28;20258;-91
2022/10/28 05:17:32;;;;;;;9.63;4.90;;;12.50;99.90;;;;;;4989619;28;20286;-89
2022/10/28 05:19:59;;;;;;;8.00;4.63;;;12.50;99.90;;;;;;4999713;28;20222;-92
2022/10/28 05:22:26;;;;;;;9.17;5.00;;;12.50;99.90;;;;;;4995242;28;20233;-92
2022/10/28 05:24:56;;;;;;;8.83;5.40;;;12.50;99.90;;;;;;4996697;28;20759;-92
2022/10/28 05:27:22;;;;;;;8.97;5.00;;;12.50;99.90;;;;;;4995310;28;20316;-91
2022/10/28 05:29:50;;;;;;;7.27;4.53;;;12.40;99.90;;;;;;4999612;28;20324;-93
2022/10/28 05:35:07;;;;;;;9.87;5.37;;;12.40;99.90;;;;;;4999994;28;20948;-93
2022/10/28 05:37:38;;;;;;;7.90;4.93;;;12.30;99.90;;;;;;4998873;28;20251;-93
2022/10/28 05:40:12;;;;;;;9.17;4.73;;;12.30;99.90;;;;;;5012890;28;20260;-93
2022/10/28 05:42:43;;;;;;;9.07;4.90;;;12.30;99.90;;;;;;4994386;28;20218;-93
2022/10/28 05:45:13;;;;;;;8.87;4.73;;;12.20;99.90;;;;;;4996475;28;20249;-94
2022/10/28 05:47:43;;;;;;;7.73;5.17;;;12.20;99.90;;;;;;4999739;28;20246;-92
2022/10/28 05:50:12;;;;;;;9.27;5.10;;;12.20;99.90;;;;;;5000631;28;20226;-92
2022/10/28 05:52:39;;;;;;;9.37;5.40;;;12.20;99.90;;;;;;5001505;28;20827;-91
2022/10/28 05:55:07;;;;;;;9.60;5.30;;;12.20;99.90;;;;;;4995811;28;20234;-92
2022/10/28 05:57:40;;;;;;;7.53;4.67;;;12.20;99.90;;;;;;5008832;28;20655;-91
2022/10/28 06:00:08;;;;;;;8.07;4.63;;;12.10;99.90;;;;;;4994906;28;20926;-92
2022/10/28 06:02:44;;;;;;;13.13;5.80;;;12.10;99.90;;;;;;5001559;28;20234;-91
2022/10/28 06:05:20;;;;;;;10.03;5.20;;;12.10;99.90;;;;;;4997699;28;20669;-93
2022/10/28 06:07:47;;;;;;;10.83;5.00;;;12.10;99.90;;;;;;5003741;28;20587;-91
2022/10/28 06:10:14;;;;;;;9.33;4.87;;;12.10;99.90;;;;;;4996750;28;20231;-92
2022/10/28 06:12:41;;;;;;;9.53;5.20;;;12.10;99.90;;;;;;4998833;28;20283;-91
2022/10/28 06:15:10;;;;;;;8.73;5.30;;;12.00;99.90;;;;;;5006136;28;20233;-92
2022/10/28 06:17:38;;;;;;;7.67;5.13;;;12.00;99.90;;;;;;5003362;28;20366;-91
2022/10/28 06:20:08;;;;;;;11.00;5.80;;;12.00;99.90;;;;;;5000897;28;20310;-91
2022/10/28 06:22:37;;;;;;;11.13;5.40;;;12.00;99.90;;;;;;4996759;28;20235;-93
2022/10/28 06:25:06;;;;;;;11.00;6.37;;;12.00;99.90;;;;;;5000015;28;20235;-91
2022/10/28 06:27:33;;;;;;;9.37;5.60;;;12.00;99.90;;;;;;4987264;28;20236;-93
2022/10/28 06:30:25;;;;;;;9.13;5.40;;;12.00;99.90;;;;;;5004577;28;20231;-92
2022/10/28 06:32:53;;;;;;;9.90;5.60;;;12.00;99.90;;;;;;5003943;28;20279;-93
2022/10/28 06:35:19;;;;;;;10.33;5.97;;;11.90;99.90;;;;;;5000525;28;20223;-92
2022/10/28 06:37:53;;;;;;;14.67;5.43;;;11.90;99.90;;;;;;5014173;28;20229;-91
2022/10/28 06:40:20;;;;;;;9.13;5.90;;;11.90;99.90;;;;;;5006862;28;20706;-91
2022/10/28 06:42:46;;;;;;;10.90;7.00;;;11.80;99.90;;;;;;5001837;28;21009;-93
2022/10/28 06:45:13;;;;;;;8.13;6.20;;;11.80;99.90;;;;;;5007665;28;20622;-91
2022/10/28 06:47:43;;;;;;;10.17;5.43;;;11.80;99.90;;;;;;4997603;28;20309;-92
2022/10/28 06:50:10;;;;;;;11.83;6.50;;;11.80;99.90;;;;;;5003720;28;20232;-91
2022/10/28 06:52:36;;;;;;;9.30;6.07;;;11.80;99.90;;;;;;4985634;28;20339;-91
2022/10/28 06:55:08;;;;;;;9.40;6.07;;;11.90;99.90;;;;;;4994405;28;20319;-90
2022/10/28 06:57:35;;;;;;;9.20;5.97;;;11.90;99.90;;;;;;5001135;28;20254;-92
2022/10/28 07:00:07;;;;;;;8.97;5.93;;;12.00;99.90;;;;;;5007631;28;20301;-95
2022/10/28 07:02:34;;;;;;;10.00;5.97;;;12.00;99.90;;;;;;5004461;28;20249;-92
2022/10/28 07:05:13;;;;;;;9.93;5.87;;;12.00;99.90;;;;;;4989129;28;20225;-89
2022/10/28 07:07:42;;;;;;;11.87;6.00;;;12.10;99.90;;;;;;4987787;28;20229;-89
2022/10/28 07:10:13;;;;;;;9.53;5.50;;;12.20;99.90;;;;;;5004303;28;20751;-90
2022/10/28 07:12:40;;;;;;;11.50;6.20;;;12.20;99.90;;;;;;5000800;28;21104;-91
2022/10/28 07:15:16;;;;;;;10.00;5.80;;;12.30;99.90;;;;;;5005105;28;20245;-91
2022/10/28 07:17:43;;;;;;;9.93;5.90;;;12.30;99.90;;;;;;5002182;28;20424;-91
2022/10/28 07:20:11;;;;;;;10.47;5.83;;;12.40;99.90;;;;;;5001873;28;20231;-92
2022/10/28 07:22:38;;;;;;;12.33;6.10;;;12.40;99.90;;;;;;5014963;22;20226;-82
2022/10/28 07:25:06;;;;;;;10.00;6.30;;;12.50;99.90;;;;;;5005486;28;20219;-82
2022/10/28 07:27:34;;;;;;;8.70;5.70;;;12.50;99.90;;;;;;5000372;28;20293;-82
2022/10/28 07:30:00;;;;;;;12.33;6.13;;;12.60;99.90;;;;;;5000234;28;20226;-81
2022/10/28 07:32:31;;;;;;;10.10;6.03;;;12.70;99.90;;;;;;4999377;28;20238;-82
2022/10/28 07:34:58;;;;;;;11.33;6.13;;;12.70;99.90;;;;;;5000457;28;20308;-82
2022/10/28 07:37:24;;;;;;;10.17;5.50;;;12.80;99.90;;;;;;5003063;28;20336;-82
2022/10/28 07:39:51;;;;;;;9.90;6.13;;;12.90;99.90;;;;;;4999778;28;20232;-82
2022/10/28 07:42:18;;;;;;;10.30;6.13;;;13.00;99.90;;;;;;5016285;28;20367;-82
2022/10/28 07:44:46;;;;;;;10.33;5.83;;;13.00;99.90;;;;;;5001748;28;20682;-82
2022/10/28 07:47:12;;;;;;;10.27;5.43;;;13.10;99.90;;;;;;5005532;28;20223;-82
2022/10/28 07:49:39;;;;;;;10.90;5.67;;;13.20;99.90;;;;;;5002778;28;20228;-82
2022/10/28 07:52:06;;;;;;;12.33;5.63;;;13.30;99.90;;;;;;4996141;28;20229;-82
2022/10/28 07:54:32;;;;;;;14.20;5.37;;;13.40;99.90;;;;;;4993294;28;20225;-82
2022/10/28 07:56:59;;;;;;;7.00;5.30;;;13.50;99.90;;;;;;5003075;28;20252;-82
2022/10/28 07:59:26;;;;;;;8.27;4.47;;;13.60;99.90;;;;;;5003658;28;20224;-82
2022/10/28 08:01:54;;;;;;;7.37;4.70;;;13.70;99.90;;;;;;5005486;28;21931;-82
2022/10/28 08:04:21;;;;;;;7.30;4.37;;;13.80;99.90;;;;;;4999721;28;20227;-82
2022/10/28 08:06:47;;;;;;;9.90;4.77;;;14.00;99.90;;;;;;5005665;28;20238;-82
2022/10/28 08:09:15;;;;;;;10.03;4.50;;;14.10;99.90;;;;;;5009634;28;20223;-81
2022/10/28 08:11:42;;;;;;;8.83;4.10;;;14.20;99.90;;;;;;5001141;28;20294;-83
2022/10/28 08:14:09;;;;;;;6.43;4.60;;;14.30;99.90;;;;;;5003622;28;21564;-83
2022/10/28 08:16:35;;;;;;;7.83;4.70;;;14.50;99.90;;;;;;5000960;28;20267;-82
2022/10/28 08:19:03;;;;;;;9.17;4.20;;;14.60;99.90;;;;;;5003833;28;20224;-83
2022/10/28 08:21:30;;;;;;;9.37;4.37;;;14.80;99.90;;;;;;4967849;28;1176133;-83
2022/10/28 08:23:57;;;;;;;11.53;3.83;;;15.10;99.90;;;;;;5001453;28;20227;-83
2022/10/28 08:26:23;;;;;;;6.93;4.80;;;15.40;99.90;;;;;;5002395;28;21122;-83
2022/10/28 08:28:50;;;;;;;9.37;4.30;;;15.70;99.90;;;;;;5000974;28;20314;-83
2022/10/28 08:31:17;;;;;;;6.60;4.23;;;16.10;99.90;;;;;;4998284;28;20607;-83
2022/10/28 08:33:45;;;;;;;10.17;3.87;;;16.50;99.90;;;;;;4997173;28;20239;-83
2022/10/28 08:36:14;;;;;;;6.40;3.67;;;16.90;99.90;;;;;;5005610;28;20738;-84
2022/10/28 08:38:43;;;;;;;7.33;3.70;;;17.40;99.90;;;;;;5003407;28;20231;-83
2022/10/28 08:41:32;;;;;;;8.00;3.97;;;17.80;99.90;;;;;;5002003;28;20228;-82
2022/10/28 08:44:17;;;;;;;8.33;3.80;;;18.20;99.90;;;;;;5000863;28;20224;-82
2022/10/28 08:46:55;;;;;;;8.73;3.80;;;18.60;99.90;;;;;;5014573;28;20229;-84
2022/10/28 08:49:23;;;;;;;7.80;3.60;;;18.90;99.90;;;;;;4997541;28;20241;-82
2022/10/28 08:51:57;;;;;;;7.23;3.33;;;19.10;99.90;;;;;;4996383;28;20212;-83
2022/10/28 08:54:28;;;;;;;9.57;3.70;;;19.20;99.90;;;;;;4992040;28;22460;-82
2022/10/28 08:56:58;;;;;;;9.63;3.60;;;19.40;99.90;;;;;;4994884;28;20666;-83
2022/10/28 08:59:31;;;;;;;8.80;3.37;;;19.60;99.90;;;;;;4999358;28;20229;-84
2022/10/28 09:02:00;;;;;;;6.97;3.67;;;19.80;99.90;;;;;;4997223;28;20777;-83
2022/10/28 09:04:35;;;;;;;8.23;3.40;;;20.00;99.90;;;;;;4994580;28;20229;-81
2022/10/28 09:07:04;;;;;;;9.10;3.47;;;20.10;99.90;;;;;;5002220;28;20236;-82
2022/10/28 09:09:31;;;;;;;6.82;3.17;;;20.30;99.90;;;;;;5000036;28;20245;-86
2022/10/28 09:12:16;;;;;;;6.33;3.33;;;20.50;99.90;;;;;;4989584;28;20222;-82
2022/10/28 09:15:00;;;;;;;10.55;3.83;;;20.50;99.90;;;;;;4997926;28;20229;-84
2022/10/28 09:17:37;;;;;;;7.78;3.40;;;20.70;99.90;;;;;;5009900;28;20738;-83
2022/10/28 09:20:14;;;;;;;6.57;3.05;;;20.80;99.90;;;;;;4998814;28;20222;-83
2022/10/28 09:22:51;;;;;;;6.13;3.20;;;21.00;99.90;;;;;;5013958;28;20237;-84
2022/10/28 09:25:23;;;;;;;5.70;3.10;;;21.20;99.90;;;;;;4999274;28;20226;-84
2022/10/28 09:28:06;;;;;;;9.70;3.10;;;21.40;99.90;;;;;;4995689;28;20221;-82
2022/10/28 09:30:44;;;;;;;9.90;3.40;;;21.60;99.90;;;;;;4997873;28;20217;-81
2022/10/28 09:33:21;;;;;;;7.80;3.60;;;21.70;99.90;;;;;;5001266;28;20233;-81
2022/10/28 09:35:49;;;;;;;6.53;3.60;;;21.80;99.90;;;;;;5002545;28;20229;-82
2022/10/28 09:38:24;;;;;;;5.65;3.25;;;21.90;99.90;;;;;;4999101;28;20248;-82
2022/10/28 09:40:55;;;;;;;5.82;3.30;;;21.90;99.90;;;;;;5000365;28;20221;-82
2022/10/28 09:43:25;;;;;;;8.27;3.38;;;22.00;99.90;;;;;;5001900;28;20222;-82
2022/10/28 09:45:55;;;;;;;9.45;3.38;;;22.00;99.90;;;;;;4999477;28;20233;-81
2022/10/28 09:48:27;;;;;;;8.07;3.10;;;22.10;99.90;;;;;;4998790;28;20223;-81
2022/10/28 09:50:56;;;;;;;9.13;3.65;;;22.20;99.90;;;;;;5000111;28;20313;-82
2022/10/28 09:53:34;;;;;;;8.75;3.50;;;22.30;99.70;;;;;;4994320;28;20328;-82
2022/10/28 09:56:01;;;;;;;7.97;2.92;;;22.30;99.90;;;;;;5002037;28;20221;-82
2022/10/28 09:58:28;;;;;;;7.95;3.20;;;22.50;99.90;;;;;;5002446;28;20238;-82
2022/10/28 10:00:54;;;;;;;7.65;3.35;;;22.50;99.70;;;;;;4998455;28;20754;-82
2022/10/28 10:03:21;;;;;;;5.68;3.10;;;22.50;99.80;;;;;;4995962;28;20246;-81
2022/10/28 10:05:51;;;;;;;9.75;3.55;;;22.60;99.70;;;;;;5000198;28;20226;-82
2022/10/28 10:08:20;;;;;;;6.05;3.00;;;22.60;98.90;;;;;;5000537;28;20230;-82
2022/10/28 10:10:52;;;;;;;9.07;3.22;;;22.70;99.70;;;;;;5003657;28;20545;-81
2022/10/28 10:13:23;;;;;;;5.85;3.50;;;22.80;99.50;;;;;;4999159;28;20246;-81
2022/10/28 10:15:54;;;;;;;5.90;3.15;;;22.80;99.90;;;;;;5002715;28;20230;-80
2022/10/28 10:18:24;;;;;;;10.60;3.78;;;22.90;99.60;;;;;;4996849;28;20259;-81
2022/10/28 10:20:54;;;;;;;7.00;3.30;;;23.00;99.60;;;;;;4997523;28;20805;-80
2022/10/28 10:23:29;;;;;;;9.00;3.22;;;23.10;99.80;;;;;;4994769;28;20587;-81
2022/10/28 10:26:01;;;;;;;8.25;3.45;;;23.20;98.80;;;;;;5003162;28;20773;-82
2022/10/28 10:28:29;;;;;;;7.75;3.10;;;23.40;99.20;;;;;;4993336;28;20224;-81
2022/10/28 10:30:58;;;;;;;8.77;3.28;;;23.50;99.60;;;;;;5003985;28;20248;-81
2022/10/28 10:33:27;;;;;;;6.97;3.15;;;23.60;98.90;;;;;;4996409;28;20848;-81
2022/10/28 10:35:56;;;;;;;7.90;3.15;;;23.70;99.00;;;;;;5003322;28;20344;-81
2022/10/28 10:38:23;;;;;;;6.97;2.97;;;23.80;99.00;;;;;;5016868;28;20991;-81
2022/10/28 10:40:51;;;;;;;5.20;2.63;;;23.90;99.00;;;;;;5007922;28;20218;-81
2022/10/28 10:43:29;;;;;;;9.07;2.92;;;23.90;99.10;;;;;;5012212;28;20226;-81
2022/10/28 10:46:01;;;;;;;8.68;3.55;;;24.00;98.80;;;;;;4991609;28;20612;-81
2022/10/28 10:48:28;;;;;;;7.15;2.90;;;24.10;98.90;;;;;;4999721;28;20210;-81
2022/10/28 10:50:55;;;;;;;10.35;3.30;;;24.20;98.50;;;;;;4999514;28;20240;-81
2022/10/28 10:53:27;;;;;;;7.50;3.20;;;24.30;98.00;;;;;;5003736;28;20249;-81
2022/10/28 10:55:57;;;;;;;6.90;3.00;;;24.30;97.50;;;;;;4995549;28;20369;-81
2022/10/28 10:58:28;;;;;;;9.18;3.20;;;24.30;97.90;;;;;;5000339;28;20229;-81
2022/10/28 11:00:56;;;;;;;5.82;2.90;;;24.30;97.80;;;;;;5004270;28;20232;-80
2022/10/28 11:03:27;;;;;;;10.32;3.33;;;24.30;98.20;;;;;;5002555;28;20217;-80
2022/10/28 11:05:56;;;;;;;4.93;3.28;;;24.30;98.20;;;;;;5001346;28;20221;-81
2022/10/28 11:08:32;;;;;;;10.27;3.50;;;24.40;97.90;;;;;;5022808;28;20228;-81
2022/10/28 11:11:13;;;;;;;7.25;3.08;;;24.40;97.40;;;;;;5007822;28;20242;-80
2022/10/28 11:13:42;;;;;;;9.25;3.08;;;24.40;97.10;;;;;;4995314;28;20234;-81
2022/10/28 11:16:18;;;;;;;6.75;2.90;;;24.40;97.30;;;;;;5004523;28;20497;-81
2022/10/28 11:18:47;;;;;;;7.00;2.78;;;24.40;97.10;;;;;;5004979;28;20231;-81
2022/10/28 11:21:42;;;;;;;10.00;3.15;;;24.40;96.70;;;;;;5004827;28;20308;-81
2022/10/28 11:24:37;;;;;;;7.63;2.67;;;24.40;96.90;;;;;;5004550;28;20307;-81
2022/10/28 11:27:11;;;;;;;7.93;2.95;;;24.40;96.80;;;;;;4999912;28;20872;-81
2022/10/28 11:29:39;;;;;;;8.50;3.03;;;24.40;97.10;;;;;;5004743;28;20713;-81
2022/10/28 11:32:34;;;;;;;6.07;3.13;;;24.40;97.20;;;;;;5006912;28;20222;-81
2022/10/28 11:35:40;;;;;;;6.22;3.15;;;24.40;95.70;;;;;;5014086;28;20235;-81
2022/10/28 11:38:18;;;;;;;10.18;2.85;;;24.30;96.70;;;;;;4980792;28;20229;-81
2022/10/28 11:41:05;;;;;;;5.53;2.67;;;24.40;96.50;;;;;;5001519;28;20226;-82
2022/10/28 11:43:41;;;;;;;6.18;3.00;;;24.30;96.80;;;;;;5019338;28;20302;-80
2022/10/28 11:46:14;;;;;;;7.50;3.00;;;24.30;96.60;;;;;;4999305;28;20226;-80
2022/10/28 11:48:55;;;;;;;11.52;3.42;;;24.30;97.00;;;;;;5005660;28;20233;-81
2022/10/28 11:51:33;;;;;;;9.40;3.20;;;24.30;97.00;;;;;;5008484;28;20300;-81
2022/10/28 11:54:31;;;;;;;10.57;3.65;;;24.20;96.10;;;;;;5003017;28;20237;-81
2022/10/28 11:57:03;;;;;;;6.85;2.92;;;24.20;96.50;;;;;;4975864;28;20229;-81
2022/10/28 12:00:02;;;;;;;9.30;3.15;;;24.20;96.50;;;;;;5007274;28;20229;-81
2022/10/28 12:02:50;;;;;;;8.82;3.30;;;24.10;95.50;;;;;;4969650;28;20285;-82
2022/10/28 12:05:22;;;;;;;11.45;3.78;;;23.90;95.40;;;;;;5004066;28;20288;-83
2022/10/28 12:08:04;;;;;;;12.88;3.35;;;23.80;96.10;;;;;;5007910;28;20229;-82
2022/10/28 12:10:39;;;;;;;9.27;2.90;;;23.70;96.30;;;;;;5006160;28;20228;-83
2022/10/28 12:13:18;;;;;;;7.38;3.17;;;23.50;96.60;;;;;;5003095;28;20209;-82
2022/10/28 12:15:53;;;;;;;9.93;3.10;;;23.40;96.80;;;;;;5009923;28;20229;-82
2022/10/28 12:18:27;;;;;;;8.82;3.25;;;23.30;96.90;;;;;;4996628;28;20331;-82
2022/10/28 12:20:59;;;;;;;7.50;3.25;;;23.20;96.50;;;;;;5005552;28;20252;-82
2022/10/28 12:23:27;;;;;;;9.80;3.40;;;23.10;96.70;;;;;;5000795;28;20225;-82
2022/10/28 12:25:57;;;;;;;9.23;3.53;;;23.10;96.80;;;;;;4997427;28;20708;-82
2022/10/28 12:28:27;;;;;;;12.15;3.42;;;22.90;96.90;;;;;;5006589;28;20239;-82
2022/10/28 12:30:56;;;;;;;8.82;3.25;;;23.00;97.40;;;;;;5005580;28;20225;-82
2022/10/28 12:33:27;;;;;;;13.93;3.30;;;23.00;97.40;;;;;;5000150;28;20329;-82
2022/10/28 12:36:10;;;;;;;8.07;3.38;;;23.00;97.40;;;;;;5000159;28;20290;-83
2022/10/28 12:38:43;;;;;;;7.55;2.95;;;23.10;97.40;;;;;;4999149;28;20225;-82
2022/10/28 12:41:15;;;;;;;10.75;3.85;;;23.10;96.90;;;;;;5002566;28;21194;-80
2022/10/28 12:43:46;;;;;;;7.15;3.70;;;23.10;96.60;;;;;;5001140;23;20226;-84
2022/10/28 12:46:23;;;;;;;12.35;3.90;;;23.10;97.10;;;;;;4976469;28;20269;-84
2022/10/28 12:48:55;;;;;;;10.15;3.25;;;23.00;96.60;;;;;;4971361;28;20222;-81
2022/10/28 12:51:28;;;;;;;10.10;3.55;;;22.90;96.80;;;;;;4998572;28;20230;-84
2022/10/28 12:54:00;;;;;;;9.73;3.22;;;22.80;96.90;;;;;;4977325;28;20616;-79
2022/10/28 12:56:33;;;;;;;13.38;3.78;;;22.70;96.90;;;;;;4978188;28;20921;-82
2022/10/28 12:59:06;;;;;;;12.02;3.15;;;22.60;97.00;;;;;;4977456;28;20305;-80
2022/10/28 13:01:35;;;;;;;6.22;3.00;;;22.60;97.30;;;;;;4977917;28;20220;-83
2022/10/28 13:04:04;;;;;;;9.07;3.17;;;22.50;97.60;;;;;;4973794;28;20265;-79
2022/10/28 13:07:01;;;;;;;9.20;3.60;;;22.50;97.60;;;;;;4978961;28;20230;-82
2022/10/28 13:09:44;;;;;;;8.13;3.00;;;22.40;97.40;;;;;;4972746;28;20222;-82
2022/10/28 13:12:36;;;;;;;10.43;3.40;;;22.50;97.50;;;;;;4974962;28;20222;-80